createdAt,value
2022-11-29T00:00:40.151Z,16.80
2022-11-29T00:01:42.257Z,17.80
2022-11-29T00:02:44.023Z,18.10
2022-11-29T00:03:45.762Z,18.98
2022-11-29T00:04:47.375Z,19.10
2022-11-29T00:05:49.019Z,18.75
2022-11-29T00:06:50.596Z,17.75
2022-11-29T00:07:52.379Z,17.33
2022-11-29T00:08:59.479Z,17.05
2022-11-29T00:10:01.033Z,16.38
2022-11-29T00:11:14.417Z,16.65
2022-11-29T00:12:16.069Z,18.08
2022-11-29T00:13:17.845Z,17.48
2022-11-29T00:14:20.961Z,18.00
2022-11-29T00:15:22.556Z,17.90
2022-11-29T00:16:24.153Z,18.85
2022-11-29T00:17:25.751Z,17.25
2022-11-29T00:18:27.351Z,18.55
2022-11-29T00:19:29.253Z,17.55
2022-11-29T00:20:31.482Z,18.13
2022-11-29T00:21:40.918Z,17.05
2022-11-29T00:22:42.583Z,17.50
2022-11-29T00:23:44.176Z,16.88
2022-11-29T00:24:46.087Z,18.33
2022-11-29T00:25:47.917Z,17.17
2022-11-29T00:26:49.782Z,16.88
2022-11-29T00:27:51.527Z,17.63
2022-11-29T00:28:53.496Z,17.30
2022-11-29T00:29:55.116Z,17.35
2022-11-29T00:30:56.824Z,19.52
2022-11-29T00:31:59.080Z,17.50
2022-11-29T00:33:00.722Z,17.50
2022-11-29T00:34:04.960Z,18.00
2022-11-29T00:35:09.632Z,17.27
2022-11-29T00:36:11.735Z,17.63
2022-11-29T00:37:13.477Z,18.25
2022-11-29T00:38:15.128Z,17.58
2022-11-29T00:39:16.957Z,18.25
2022-11-29T00:40:18.573Z,17.77
2022-11-29T00:41:20.297Z,19.52
2022-11-29T00:42:21.893Z,17.98
2022-11-29T00:43:23.478Z,18.73
2022-11-29T00:44:25.122Z,19.27
2022-11-29T00:45:26.739Z,18.20
2022-11-29T00:46:28.960Z,18.98
2022-11-29T00:47:30.538Z,17.60
2022-11-29T00:48:32.281Z,18.23
2022-11-29T00:49:33.860Z,18.70
2022-11-29T00:50:35.543Z,18.23
2022-11-29T00:51:39.922Z,19.67
2022-11-29T00:52:41.564Z,19.17
2022-11-29T00:53:43.211Z,19.17
2022-11-29T00:54:45.043Z,19.02
2022-11-29T00:55:58.828Z,18.58
2022-11-29T00:57:00.411Z,17.75
2022-11-29T00:58:02.126Z,19.30
2022-11-29T00:59:03.972Z,18.27
2022-11-29T01:00:06.493Z,19.20
2022-11-29T01:01:08.400Z,18.98
2022-11-29T01:02:10.080Z,19.63
2022-11-29T01:03:11.940Z,18.48
2022-11-29T01:04:13.681Z,18.95
2022-11-29T01:05:15.311Z,19.45
2022-11-29T01:06:18.293Z,20.00
2022-11-29T01:07:20.076Z,19.85
2022-11-29T01:08:21.719Z,19.35
2022-11-29T01:09:23.314Z,18.23
2022-11-29T01:10:25.224Z,19.08
2022-11-29T01:11:27.969Z,19.17
2022-11-29T01:12:29.594Z,18.40
2022-11-29T01:13:31.217Z,18.20
2022-11-29T01:14:32.827Z,17.98
2022-11-29T01:15:34.507Z,19.83
2022-11-29T01:16:36.450Z,17.90
2022-11-29T01:17:39.215Z,19.15
2022-11-29T01:18:42.104Z,16.20
2022-11-29T01:19:47.913Z,17.13
2022-11-29T01:21:01.584Z,17.77
2022-11-29T01:22:03.320Z,18.42
2022-11-29T01:23:04.914Z,14.98
2022-11-29T01:24:06.717Z,17.08
2022-11-29T01:25:11.182Z,17.17
2022-11-29T01:26:18.199Z,16.40
2022-11-29T01:27:19.995Z,16.70
2022-11-29T01:28:21.676Z,15.15
2022-11-29T01:29:23.336Z,15.52
2022-11-29T01:30:25.735Z,17.13
2022-11-29T01:31:33.580Z,18.00
2022-11-29T01:32:36.155Z,17.27
2022-11-29T01:33:38.101Z,17.30
2022-11-29T01:34:39.917Z,16.70
2022-11-29T01:35:54.095Z,18.63
2022-11-29T01:36:55.995Z,15.60
2022-11-29T01:37:57.559Z,17.13
2022-11-29T01:39:00.722Z,16.98
2022-11-29T01:40:02.689Z,18.08
2022-11-29T01:41:08.489Z,17.90
2022-11-29T01:42:14.549Z,19.45
2022-11-29T01:43:18.256Z,17.75
2022-11-29T01:44:19.877Z,19.73
2022-11-29T01:45:25.870Z,16.80
2022-11-29T01:46:33.571Z,17.23
2022-11-29T01:47:42.962Z,16.73
2022-11-29T01:48:44.851Z,15.30
2022-11-29T01:49:49.015Z,16.55
2022-11-29T01:50:52.468Z,16.27
2022-11-29T01:52:07.988Z,16.02
2022-11-29T01:53:14.021Z,15.32
2022-11-29T01:54:15.700Z,15.90
2022-11-29T01:55:18.210Z,15.30
2022-11-29T01:56:21.485Z,15.30
2022-11-29T01:57:23.797Z,14.88
2022-11-29T01:58:25.502Z,17.15
2022-11-29T01:59:29.594Z,16.40
2022-11-29T02:00:31.201Z,15.77
2022-11-29T02:01:34.734Z,15.20
2022-11-29T02:02:41.846Z,16.30
2022-11-29T02:03:43.543Z,16.38
2022-11-29T02:04:46.903Z,16.92
2022-11-29T02:05:51.512Z,15.48
2022-11-29T02:06:53.165Z,17.55
2022-11-29T02:07:58.713Z,15.90
2022-11-29T02:09:00.433Z,15.48
2022-11-29T02:10:03.977Z,14.98
2022-11-29T02:11:26.936Z,15.63
2022-11-29T02:12:50.067Z,16.40
2022-11-29T02:14:12.797Z,14.45
2022-11-29T02:15:36.796Z,16.10
2022-11-29T02:16:45.030Z,15.52
2022-11-29T02:18:04.066Z,14.35
2022-11-29T02:19:23.840Z,17.75
2022-11-29T02:21:03.537Z,14.48
2022-11-29T02:22:33.052Z,14.55
2022-11-29T02:23:56.158Z,14.50
2022-11-29T02:25:17.625Z,15.75
2022-11-29T02:26:58.952Z,14.40
2022-11-29T02:28:41.758Z,13.38
2022-11-29T02:30:09.156Z,14.32
2022-11-29T02:31:29.695Z,14.75
2022-11-29T02:33:00.687Z,14.63
2022-11-29T02:34:21.124Z,15.27
2022-11-29T02:35:38.491Z,13.43
2022-11-29T02:36:51.348Z,14.07
2022-11-29T02:38:08.039Z,14.52
2022-11-29T02:39:24.866Z,15.60
2022-11-29T02:41:00.136Z,16.05
2022-11-29T02:42:29.415Z,15.15
2022-11-29T02:44:06.207Z,13.93
2022-11-29T02:45:13.855Z,13.60
2022-11-29T02:46:27.622Z,15.00
2022-11-29T02:48:07.916Z,14.32
2022-11-29T02:49:44.455Z,14.75
2022-11-29T02:51:06.306Z,15.25
2022-11-29T02:52:15.749Z,14.85
2022-11-29T02:53:42.188Z,15.13
2022-11-29T02:54:47.206Z,15.43
2022-11-29T02:56:05.068Z,15.55
2022-11-29T02:57:26.111Z,15.05
2022-11-29T02:58:48.989Z,14.15
2022-11-29T03:00:20.110Z,14.35
2022-11-29T03:01:29.907Z,14.00
2022-11-29T03:02:58.177Z,14.57
2022-11-29T03:04:11.538Z,13.27
2022-11-29T03:05:51.003Z,14.95
2022-11-29T03:07:02.180Z,15.52
2022-11-29T03:08:36.088Z,14.23
2022-11-29T03:10:20.516Z,16.65
2022-11-29T03:11:40.839Z,16.33
2022-11-29T03:12:48.695Z,15.05
2022-11-29T03:14:25.201Z,15.43
2022-11-29T03:15:39.184Z,15.85
2022-11-29T03:17:21.310Z,15.02
2022-11-29T03:18:34.562Z,15.57
2022-11-29T03:19:51.324Z,16.65
2022-11-29T03:21:03.809Z,15.40
2022-11-29T03:22:24.427Z,15.35
2022-11-29T03:23:34.099Z,17.10
2022-11-29T03:25:01.972Z,16.23
2022-11-29T03:26:31.977Z,16.10
2022-11-29T03:27:54.660Z,15.10
2022-11-29T03:29:06.862Z,16.20
2022-11-29T03:30:11.923Z,16.02
2022-11-29T03:31:27.674Z,15.85
2022-11-29T03:32:33.199Z,15.23
2022-11-29T03:33:43.235Z,15.15
2022-11-29T03:35:06.889Z,17.70
2022-11-29T03:36:45.417Z,16.42
2022-11-29T03:37:57.727Z,15.45
2022-11-29T03:39:05.388Z,16.42
2022-11-29T03:40:14.520Z,15.55
2022-11-29T03:41:21.061Z,16.10
2022-11-29T03:42:46.942Z,15.13
2022-11-29T03:44:03.143Z,16.58
2022-11-29T03:45:10.861Z,16.33
2022-11-29T03:46:22.677Z,14.73
2022-11-29T03:47:33.585Z,17.73
2022-11-29T03:48:45.831Z,14.57
2022-11-29T03:49:58.928Z,15.70
2022-11-29T03:51:11.167Z,15.45
2022-11-29T03:52:24.267Z,16.08
2022-11-29T03:53:52.693Z,15.10
2022-11-29T03:55:03.569Z,15.38
2022-11-29T03:56:22.675Z,15.60
2022-11-29T03:57:33.174Z,15.07
2022-11-29T03:58:57.629Z,16.10
2022-11-29T04:00:10.680Z,15.40
2022-11-29T04:01:20.875Z,15.50
2022-11-29T04:02:40.022Z,15.73
2022-11-29T04:04:15.515Z,17.20
2022-11-29T04:05:25.177Z,15.80
2022-11-29T04:06:38.274Z,14.98
2022-11-29T04:07:39.929Z,17.15
2022-11-29T04:09:23.131Z,15.57
2022-11-29T04:10:30.083Z,15.20
2022-11-29T04:12:07.189Z,14.70
2022-11-29T04:13:15.237Z,14.90
2022-11-29T04:14:55.128Z,13.95
2022-11-29T04:16:06.010Z,14.55
2022-11-29T04:17:25.476Z,14.27
2022-11-29T04:18:45.055Z,14.90
2022-11-29T04:20:10.757Z,15.52
2022-11-29T04:21:33.570Z,14.13
2022-11-29T04:22:49.472Z,14.75
2022-11-29T04:23:54.205Z,14.30
2022-11-29T04:25:09.069Z,14.98
2022-11-29T04:26:33.582Z,14.10
2022-11-29T04:27:59.476Z,15.05
2022-11-29T04:29:11.791Z,14.77
2022-11-29T04:30:18.687Z,14.38
2022-11-29T04:31:33.556Z,14.98
2022-11-29T04:32:50.236Z,14.90
2022-11-29T04:34:25.673Z,14.65
2022-11-29T04:35:42.830Z,13.27
2022-11-29T04:37:18.313Z,13.20
2022-11-29T04:39:09.337Z,14.35
2022-11-29T04:40:36.497Z,13.38
2022-11-29T04:42:02.065Z,14.15
2022-11-29T04:43:34.045Z,14.60
2022-11-29T04:44:50.578Z,13.73
2022-11-29T04:46:18.994Z,14.68
2022-11-29T04:47:41.653Z,14.15
2022-11-29T04:49:07.194Z,13.95
2022-11-29T04:50:36.898Z,12.82
2022-11-29T04:52:04.308Z,14.32
2022-11-29T04:53:28.411Z,13.82
2022-11-29T04:54:39.354Z,14.70
2022-11-29T04:55:54.483Z,14.63
2022-11-29T04:57:25.915Z,14.30
2022-11-29T04:58:30.220Z,14.02
2022-11-29T05:00:15.456Z,15.68
2022-11-29T05:01:54.133Z,14.15
2022-11-29T05:02:58.454Z,16.33
2022-11-29T05:04:30.191Z,16.80
2022-11-29T05:06:01.826Z,17.20
2022-11-29T05:07:14.259Z,16.75
2022-11-29T05:08:53.687Z,17.02
2022-11-29T05:10:22.333Z,17.02
2022-11-29T05:11:26.930Z,16.35
2022-11-29T05:12:31.343Z,16.05
2022-11-29T05:14:08.008Z,16.65
2022-11-29T05:15:41.181Z,16.98
2022-11-29T05:16:48.036Z,15.85
2022-11-29T05:18:21.524Z,17.75
2022-11-29T05:20:03.720Z,18.10
2022-11-29T05:21:39.665Z,16.80
2022-11-29T05:23:07.569Z,15.68
2022-11-29T05:24:30.947Z,15.80
2022-11-29T05:26:15.585Z,16.13
2022-11-29T05:32:54.929Z,17.63
2022-11-29T05:34:35.444Z,16.40
2022-11-29T05:40:23.194Z,16.67
2022-11-29T05:42:09.418Z,16.52
2022-11-29T05:43:30.396Z,15.32
2022-11-29T05:44:41.173Z,16.50
2022-11-29T05:46:01.800Z,16.77
2022-11-29T05:47:11.521Z,15.95
2022-11-29T05:48:29.672Z,17.23
2022-11-29T05:49:53.303Z,17.60
2022-11-29T05:51:21.131Z,17.40
2022-11-29T05:52:30.024Z,18.20
2022-11-29T05:53:51.316Z,18.63
2022-11-29T05:55:14.055Z,18.13
2022-11-29T05:56:29.197Z,18.02
2022-11-29T05:57:37.864Z,18.23
2022-11-29T05:58:58.217Z,18.55
2022-11-29T06:00:03.095Z,17.30
2022-11-29T06:01:25.964Z,18.95
2022-11-29T06:02:27.630Z,17.80
2022-11-29T06:03:59.948Z,20.23
2022-11-29T06:05:17.487Z,17.50
2022-11-29T06:06:31.116Z,18.30
2022-11-29T06:07:44.850Z,17.45
2022-11-29T06:08:58.524Z,17.08
2022-11-29T06:10:05.521Z,17.30
2022-11-29T06:11:36.135Z,17.85
2022-11-29T06:12:38.822Z,17.95
2022-11-29T06:14:02.439Z,19.17
2022-11-29T06:15:17.616Z,17.75
2022-11-29T06:16:34.665Z,16.30
2022-11-29T06:17:55.198Z,18.30
2022-11-29T06:19:21.302Z,17.63
2022-11-29T06:20:37.889Z,17.60
2022-11-29T06:22:16.876Z,17.95
2022-11-29T06:23:50.909Z,17.85
2022-11-29T06:25:02.017Z,18.70
2022-11-29T06:26:26.617Z,17.13
2022-11-29T06:27:44.855Z,17.30
2022-11-29T06:29:17.713Z,17.02
2022-11-29T06:30:38.987Z,16.77
2022-11-29T06:31:46.495Z,16.58
2022-11-29T06:32:58.558Z,17.83
2022-11-29T06:34:45.222Z,15.98
2022-11-29T06:36:16.174Z,15.07
2022-11-29T06:37:24.941Z,15.18
2022-11-29T06:38:30.685Z,15.75
2022-11-29T06:39:32.585Z,15.80
2022-11-29T06:40:34.461Z,15.98
2022-11-29T06:41:37.113Z,15.18
2022-11-29T06:42:38.874Z,15.80
2022-11-29T06:43:40.769Z,16.75
2022-11-29T06:44:42.983Z,17.10
2022-11-29T06:45:53.953Z,16.20
2022-11-29T06:47:10.684Z,15.32
2022-11-29T06:48:19.172Z,16.92
2022-11-29T06:49:37.523Z,15.50
2022-11-29T06:51:14.109Z,15.43
2022-11-29T06:52:23.037Z,14.73
2022-11-29T06:53:44.639Z,14.88
2022-11-29T06:54:58.280Z,15.88
2022-11-29T06:56:07.444Z,14.43
2022-11-29T06:57:17.935Z,15.52
2022-11-29T06:58:32.894Z,15.45
2022-11-29T06:59:49.929Z,14.50
2022-11-29T07:01:05.837Z,14.63
2022-11-29T07:02:15.997Z,14.68
2022-11-29T07:03:48.129Z,13.40
2022-11-29T07:05:21.122Z,14.20
2022-11-29T07:06:25.841Z,14.90
2022-11-29T07:07:27.700Z,13.88
2022-11-29T07:08:29.527Z,16.48
2022-11-29T07:09:34.539Z,14.68
2022-11-29T07:10:39.575Z,15.45
2022-11-29T07:11:42.148Z,15.73
2022-11-29T07:12:46.265Z,15.52
2022-11-29T07:13:48.109Z,14.35
2022-11-29T07:14:49.998Z,15.93
2022-11-29T07:16:16.041Z,15.30
2022-11-29T07:17:45.032Z,14.85
2022-11-29T07:19:25.326Z,13.98
2022-11-29T07:20:40.829Z,13.63
2022-11-29T07:21:58.146Z,14.95
2022-11-29T07:23:08.581Z,14.52
2022-11-29T07:25:00.340Z,15.82
2022-11-29T07:26:33.284Z,14.25
2022-11-29T07:27:46.331Z,14.73
2022-11-29T07:29:18.262Z,13.68
2022-11-29T07:30:27.718Z,15.10
2022-11-29T07:31:46.296Z,14.10
2022-11-29T07:33:15.408Z,15.90
2022-11-29T07:34:47.283Z,16.38
2022-11-29T07:36:21.916Z,14.90
2022-11-29T07:37:34.041Z,15.48
2022-11-29T07:38:56.069Z,15.95
2022-11-29T07:39:57.836Z,15.38
2022-11-29T07:41:04.915Z,16.50
2022-11-29T07:42:21.159Z,15.90
2022-11-29T07:43:26.150Z,15.73
2022-11-29T07:44:40.029Z,15.82
2022-11-29T07:45:41.682Z,17.40
2022-11-29T07:46:43.431Z,17.33
2022-11-29T07:47:46.173Z,18.63
2022-11-29T07:48:47.815Z,17.30
2022-11-29T07:49:49.399Z,16.38
2022-11-29T07:50:51.006Z,16.55
2022-11-29T07:51:54.678Z,15.90
2022-11-29T07:52:56.651Z,17.75
2022-11-29T07:53:58.307Z,16.50
2022-11-29T07:54:59.953Z,16.60
2022-11-29T07:56:01.500Z,16.83
2022-11-29T07:57:03.128Z,17.15
2022-11-29T07:58:04.706Z,17.25
2022-11-29T07:59:10.909Z,19.48
2022-11-29T08:00:13.868Z,16.58
2022-11-29T08:01:15.538Z,16.90
2022-11-29T08:02:27.404Z,16.20
2022-11-29T08:03:29.233Z,16.73
2022-11-29T08:04:30.918Z,15.48
2022-11-29T08:05:32.592Z,16.67
2022-11-29T08:06:35.068Z,16.63
2022-11-29T08:07:38.405Z,15.98
2022-11-29T08:08:44.015Z,16.48
2022-11-29T08:09:46.196Z,16.85
2022-11-29T08:10:48.707Z,16.63
2022-11-29T08:11:50.398Z,16.88
2022-11-29T08:12:52.886Z,16.58
2022-11-29T08:13:58.619Z,15.82
2022-11-29T08:15:00.274Z,16.35
2022-11-29T08:16:01.907Z,17.42
2022-11-29T08:17:03.972Z,17.08
2022-11-29T08:18:05.620Z,18.15
2022-11-29T08:19:07.264Z,15.68
2022-11-29T08:20:10.520Z,17.48
2022-11-29T08:21:17.808Z,17.40
2022-11-29T08:22:19.517Z,16.77
2022-11-29T08:23:21.403Z,17.05
2022-11-29T08:24:23.116Z,18.55
2022-11-29T08:25:25.933Z,16.35
2022-11-29T08:26:31.684Z,17.67
2022-11-29T08:27:34.440Z,16.23
2022-11-29T08:28:36.071Z,17.42
2022-11-29T08:29:37.710Z,16.80
2022-11-29T08:30:39.506Z,16.90
2022-11-29T08:31:41.582Z,18.08
2022-11-29T08:32:47.089Z,17.27
2022-11-29T08:33:51.565Z,19.25
2022-11-29T08:34:53.270Z,17.23
2022-11-29T08:35:54.997Z,17.95
2022-11-29T08:36:56.608Z,16.92
2022-11-29T08:37:58.346Z,16.55
2022-11-29T08:39:08.889Z,16.90
2022-11-29T08:40:11.863Z,15.13
2022-11-29T08:41:15.304Z,17.23
2022-11-29T08:42:16.880Z,15.85
2022-11-29T08:43:18.482Z,17.73
2022-11-29T08:44:20.141Z,17.33
2022-11-29T08:45:21.743Z,17.77
2022-11-29T08:46:43.619Z,16.98
2022-11-29T08:47:45.222Z,16.55
2022-11-29T08:48:47.849Z,16.77
2022-11-29T08:50:01.293Z,17.55
2022-11-29T08:51:04.128Z,16.38
2022-11-29T08:52:24.202Z,16.38
2022-11-29T08:53:45.966Z,15.48
2022-11-29T08:54:47.927Z,14.55
2022-11-29T08:55:50.427Z,16.40
2022-11-29T08:58:15.175Z,15.02
2022-11-29T08:59:16.723Z,16.73
2022-11-29T09:00:21.068Z,16.15
2022-11-29T09:01:23.002Z,18.00
2022-11-29T09:02:24.690Z,16.77
2022-11-29T09:03:44.882Z,17.40
2022-11-29T09:04:46.635Z,17.95
2022-11-29T09:05:48.605Z,18.13
2022-11-29T09:06:50.360Z,17.10
2022-11-29T09:07:51.970Z,17.95
2022-11-29T09:08:57.183Z,16.33
2022-11-29T09:09:58.924Z,17.38
2022-11-29T09:11:00.962Z,16.75
2022-11-29T09:12:02.996Z,16.90
2022-11-29T09:13:04.628Z,18.63
2022-11-29T09:14:08.010Z,17.08
2022-11-29T09:15:10.767Z,17.38
2022-11-29T09:16:14.973Z,18.02
2022-11-29T09:17:16.648Z,16.70
2022-11-29T09:18:18.237Z,18.30
2022-11-29T09:19:19.882Z,17.02
2022-11-29T09:20:21.661Z,17.23
2022-11-29T09:21:25.780Z,18.30
2022-11-29T09:22:27.424Z,17.25
2022-11-29T09:23:29.095Z,17.60
2022-11-29T09:24:30.883Z,18.40
2022-11-29T09:25:32.492Z,15.90
2022-11-29T09:26:36.212Z,16.80
2022-11-29T09:27:37.789Z,17.88
2022-11-29T09:28:39.440Z,16.15
2022-11-29T09:29:41.043Z,16.83
2022-11-29T09:30:42.619Z,18.27
2022-11-29T09:31:47.430Z,18.67
2022-11-29T09:32:49.161Z,16.70
2022-11-29T09:33:50.971Z,16.98
2022-11-29T09:34:52.569Z,17.60
2022-11-29T09:35:58.050Z,14.82
2022-11-29T09:36:59.916Z,16.92
2022-11-29T09:38:01.534Z,16.33
2022-11-29T09:39:03.304Z,16.38
2022-11-29T09:40:05.742Z,14.50
2022-11-29T09:41:19.241Z,17.20
2022-11-29T09:42:36.743Z,17.08
2022-11-29T09:44:12.073Z,15.93
2022-11-29T09:45:19.248Z,15.45
2022-11-29T09:46:41.990Z,16.25
2022-11-29T09:48:26.497Z,16.90
2022-11-29T09:49:48.956Z,17.58
2022-11-29T09:51:12.949Z,17.60
2022-11-29T09:52:36.059Z,15.30
2022-11-29T09:54:01.460Z,16.23
2022-11-29T09:55:22.947Z,17.05
2022-11-29T09:56:38.969Z,16.60
2022-11-29T09:57:43.910Z,18.58
2022-11-29T09:58:51.866Z,16.80
2022-11-29T09:59:58.701Z,17.98
2022-11-29T10:01:08.308Z,18.83
2022-11-29T10:02:23.367Z,17.58
2022-11-29T10:03:44.429Z,17.20
2022-11-29T10:04:52.132Z,18.25
2022-11-29T10:06:02.149Z,18.77
2022-11-29T10:07:14.350Z,18.05
2022-11-29T10:08:24.563Z,16.40
2022-11-29T10:09:40.964Z,16.95
2022-11-29T10:10:48.787Z,17.80
2022-11-29T10:12:11.792Z,17.38
2022-11-29T10:13:21.361Z,17.45
2022-11-29T10:14:29.633Z,18.58
2022-11-29T10:15:38.257Z,16.63
2022-11-29T10:16:58.003Z,16.83
2022-11-29T10:18:12.560Z,18.67
2022-11-29T10:19:40.909Z,17.02
2022-11-29T10:20:48.934Z,17.13
2022-11-29T10:22:24.414Z,17.10
2022-11-29T10:23:35.158Z,15.73
2022-11-29T10:24:38.951Z,15.40
2022-11-29T10:25:49.832Z,14.30
2022-11-29T10:26:51.437Z,14.38
2022-11-29T10:27:53.699Z,16.50
2022-11-29T10:28:57.552Z,16.65
2022-11-29T10:30:00.946Z,16.60
2022-11-29T10:31:29.253Z,15.88
2022-11-29T10:32:32.287Z,15.13
2022-11-29T10:33:36.950Z,15.27
2022-11-29T10:34:39.631Z,15.35
2022-11-29T10:35:41.378Z,16.27
2022-11-29T10:36:47.755Z,15.57
2022-11-29T10:38:28.590Z,17.38
2022-11-29T10:39:29.793Z,15.27
2022-11-29T10:40:34.879Z,17.00
2022-11-29T10:41:36.499Z,16.90
2022-11-29T10:42:53.091Z,17.95
2022-11-29T10:43:57.754Z,16.63
2022-11-29T10:45:00.211Z,16.88
2022-11-29T10:46:02.488Z,17.20
2022-11-29T10:47:10.444Z,18.75
2022-11-29T10:48:16.839Z,17.67
2022-11-29T10:49:23.206Z,18.75
2022-11-29T10:50:30.836Z,17.60
2022-11-29T10:51:34.725Z,18.17
2022-11-29T10:52:36.363Z,19.13
2022-11-29T10:53:38.521Z,18.33
2022-11-29T10:54:45.626Z,16.90
2022-11-29T10:56:00.004Z,18.48
2022-11-29T10:57:02.616Z,16.92
2022-11-29T10:58:28.318Z,16.05
2022-11-29T10:59:32.942Z,15.82
2022-11-29T11:01:06.598Z,16.85
2022-11-29T11:02:18.369Z,16.17
2022-11-29T11:03:29.226Z,16.10
2022-11-29T11:04:45.243Z,16.00
2022-11-29T11:06:03.838Z,16.30
2022-11-29T11:07:06.642Z,15.43
2022-11-29T11:08:17.417Z,15.93
2022-11-29T11:09:24.422Z,15.50
2022-11-29T11:10:29.313Z,15.30
2022-11-29T11:11:32.409Z,15.38
2022-11-29T11:12:34.845Z,15.77
2022-11-29T11:13:37.296Z,15.60
2022-11-29T11:14:39.203Z,16.40
2022-11-29T11:15:40.871Z,15.75
2022-11-29T11:16:43.032Z,14.93
2022-11-29T11:18:04.751Z,14.18
2022-11-29T11:19:34.133Z,11.82
2022-11-29T11:20:39.888Z,13.02
2022-11-29T11:21:41.543Z,14.05
2022-11-29T11:22:43.967Z,11.60
2022-11-29T11:23:54.440Z,11.65
2022-11-29T11:25:20.622Z,12.10
2022-11-29T11:26:23.683Z,12.27
2022-11-29T11:27:38.476Z,13.52
2022-11-29T11:29:02.069Z,12.70
2022-11-29T11:30:06.886Z,12.48
2022-11-29T11:31:10.823Z,12.73
2022-11-29T11:32:18.213Z,13.18
2022-11-29T11:33:25.012Z,11.55
2022-11-29T11:34:28.316Z,14.02
2022-11-29T11:35:29.992Z,12.63
2022-11-29T11:36:31.600Z,12.30
2022-11-29T11:37:35.614Z,14.30
2022-11-29T11:38:40.430Z,12.70
2022-11-29T11:39:43.481Z,14.00
2022-11-29T11:40:45.311Z,14.10
2022-11-29T11:42:06.230Z,13.95
2022-11-29T11:43:20.226Z,13.48
2022-11-29T11:44:50.315Z,12.90
2022-11-29T11:45:54.470Z,12.70
2022-11-29T11:46:56.509Z,12.95
2022-11-29T11:48:01.667Z,13.80
2022-11-29T11:49:12.832Z,14.15
2022-11-29T11:50:24.869Z,12.30
2022-11-29T11:51:26.967Z,12.40
2022-11-29T11:52:40.178Z,13.20
2022-11-29T11:53:49.656Z,13.40
2022-11-29T11:54:55.229Z,12.98
2022-11-29T11:55:59.422Z,13.00
2022-11-29T11:57:01.141Z,13.73
2022-11-29T11:58:09.828Z,14.15
2022-11-29T11:59:21.115Z,12.48
2022-11-29T12:01:02.329Z,12.82
2022-11-29T12:01:59.526Z,11.82
2022-11-29T12:03:01.367Z,13.10
2022-11-29T12:04:10.411Z,12.18
2022-11-29T12:05:16.936Z,12.68
2022-11-29T12:06:46.975Z,12.50
2022-11-29T12:08:10.578Z,12.65
2022-11-29T12:09:47.397Z,13.07
2022-11-29T12:10:52.381Z,12.35
2022-11-29T12:12:05.925Z,11.95
2022-11-29T12:13:18.207Z,11.45
2022-11-29T12:14:30.923Z,11.50
2022-11-29T12:15:38.382Z,11.88
2022-11-29T12:16:41.597Z,11.18
2022-11-29T12:18:08.620Z,11.13
2022-11-29T12:19:23.445Z,11.48
2022-11-29T12:20:30.326Z,10.60
2022-11-29T12:21:41.184Z,11.35
2022-11-29T12:22:56.432Z,11.15
2022-11-29T12:24:15.724Z,10.98
2022-11-29T12:25:23.309Z,11.55
2022-11-29T12:26:58.637Z,11.73
2022-11-29T12:28:00.548Z,11.07
2022-11-29T12:29:02.347Z,11.25
2022-11-29T12:30:12.108Z,10.65
2022-11-29T12:31:39.423Z,10.63
2022-11-29T12:32:53.726Z,11.07
2022-11-29T12:34:33.086Z,12.05
2022-11-29T12:35:56.477Z,11.25
2022-11-29T12:37:27.188Z,11.00
2022-11-29T12:38:57.926Z,12.20
2022-11-29T12:40:21.706Z,11.23
2022-11-29T12:41:29.020Z,11.82
2022-11-29T12:42:39.643Z,12.63
2022-11-29T12:44:10.160Z,12.57
2022-11-29T12:45:15.168Z,10.38
2022-11-29T12:46:29.770Z,11.38
2022-11-29T12:48:13.543Z,12.32
2022-11-29T12:49:22.529Z,11.48
2022-11-29T12:50:48.272Z,11.57
2022-11-29T12:51:58.907Z,11.30
2022-11-29T12:53:14.088Z,11.40
2022-11-29T12:54:15.954Z,12.77
2022-11-29T12:55:55.713Z,12.45
2022-11-29T12:57:00.232Z,12.00
2022-11-29T12:58:23.833Z,13.30
2022-11-29T12:59:50.482Z,10.48
2022-11-29T13:01:12.381Z,11.18
2022-11-29T13:02:22.899Z,10.50
2022-11-29T13:03:35.393Z,11.35
2022-11-29T13:04:56.491Z,11.38
2022-11-29T13:06:16.062Z,11.60
2022-11-29T13:07:45.440Z,11.60
2022-11-29T13:08:49.909Z,11.43
2022-11-29T13:10:27.632Z,10.63
2022-11-29T13:11:33.757Z,12.13
2022-11-29T13:12:46.096Z,12.73
2022-11-29T13:14:34.269Z,13.15
2022-11-29T13:15:46.397Z,11.77
2022-11-29T13:17:03.034Z,11.70
2022-11-29T13:18:07.398Z,13.52
2022-11-29T13:19:30.551Z,13.48
2022-11-29T13:20:50.254Z,13.45
2022-11-29T13:22:15.075Z,12.98
2022-11-29T13:24:07.259Z,13.25
2022-11-29T13:25:12.998Z,13.27
2022-11-29T13:26:16.205Z,13.20
2022-11-29T13:27:31.742Z,13.65
2022-11-29T13:28:37.094Z,13.57
2022-11-29T13:29:38.690Z,13.90
2022-11-29T13:30:40.523Z,13.63
2022-11-29T13:31:43.675Z,14.93
2022-11-29T13:32:59.931Z,14.23
2022-11-29T13:34:01.468Z,14.20
2022-11-29T13:35:14.807Z,13.18
2022-11-29T13:36:40.105Z,13.45
2022-11-29T13:37:54.974Z,12.88
2022-11-29T13:39:17.884Z,12.30
2022-11-29T13:40:37.236Z,13.73
2022-11-29T13:42:04.621Z,13.82
2022-11-29T13:43:41.963Z,14.85
2022-11-29T13:44:46.485Z,15.80
2022-11-29T13:46:15.210Z,14.40
2022-11-29T13:47:18.788Z,14.77
2022-11-29T13:48:35.296Z,14.70
2022-11-29T13:49:53.483Z,13.75
2022-11-29T13:50:56.673Z,14.82
2022-11-29T13:52:06.176Z,14.77
2022-11-29T13:53:23.577Z,17.70
2022-11-29T13:54:34.501Z,20.83
2022-11-29T13:55:45.077Z,15.02
2022-11-29T13:56:46.758Z,14.85
2022-11-29T13:58:17.382Z,16.83
2022-11-29T13:59:26.179Z,15.35
2022-11-29T14:00:33.925Z,15.52
2022-11-29T14:01:51.525Z,15.05
2022-11-29T14:02:57.824Z,14.68
2022-11-29T14:04:16.176Z,15.45
2022-11-29T14:05:26.397Z,14.40
2022-11-29T14:06:38.812Z,15.40
2022-11-29T14:08:19.183Z,15.60
2022-11-29T14:09:28.294Z,15.52
2022-11-29T14:10:30.627Z,15.60
2022-11-29T14:11:43.393Z,16.75
2022-11-29T14:12:55.358Z,14.48
2022-11-29T14:14:05.002Z,16.23
2022-11-29T14:15:18.445Z,16.33
2022-11-29T14:16:36.472Z,15.50
2022-11-29T14:18:03.610Z,15.60
2022-11-29T14:19:08.244Z,15.90
2022-11-29T14:20:30.574Z,17.40
2022-11-29T14:22:01.781Z,14.95
2022-11-29T14:23:06.550Z,14.52
2022-11-29T14:24:33.143Z,16.05
2022-11-29T14:25:56.569Z,15.32
2022-11-29T14:27:10.111Z,14.68
2022-11-29T14:28:14.447Z,14.93
2022-11-29T14:29:44.673Z,15.70
2022-11-29T14:30:51.313Z,15.85
2022-11-29T14:31:54.940Z,14.25
2022-11-29T14:33:44.472Z,14.73
2022-11-29T14:34:52.380Z,13.50
2022-11-29T14:36:26.248Z,15.18
2022-11-29T14:37:32.972Z,14.80
2022-11-29T14:38:53.017Z,14.80
2022-11-29T14:39:57.358Z,14.65
2022-11-29T14:41:37.259Z,14.40
2022-11-29T14:42:47.480Z,14.32
2022-11-29T14:43:49.344Z,14.73
2022-11-29T14:44:54.249Z,14.48
2022-11-29T14:46:14.461Z,16.38
2022-11-29T14:47:24.715Z,14.32
2022-11-29T14:48:29.932Z,13.52
2022-11-29T14:50:10.944Z,14.13
2022-11-29T14:51:23.247Z,14.18
2022-11-29T14:52:32.319Z,13.45
2022-11-29T14:53:36.196Z,14.38
2022-11-29T14:55:05.253Z,15.48
2022-11-29T14:56:31.719Z,15.48
2022-11-29T14:57:51.231Z,14.65
2022-11-29T14:59:29.662Z,14.90
2022-11-29T15:00:49.144Z,15.77
2022-11-29T15:01:51.271Z,14.40
2022-11-29T15:03:30.305Z,15.88
2022-11-29T15:04:36.482Z,16.65
2022-11-29T15:05:47.843Z,16.60
2022-11-29T15:06:53.130Z,16.15
2022-11-29T15:08:27.021Z,16.58
2022-11-29T15:09:29.988Z,15.68
2022-11-29T15:10:35.904Z,16.50
2022-11-29T15:11:57.616Z,17.38
2022-11-29T15:13:00.612Z,15.35
2022-11-29T15:14:13.146Z,15.40
2022-11-29T15:15:20.472Z,16.48
2022-11-29T15:16:27.375Z,16.77
2022-11-29T15:17:53.275Z,19.17
2022-11-29T15:19:36.619Z,19.20
2022-11-29T15:20:56.623Z,17.25
2022-11-29T15:22:07.340Z,16.20
2022-11-29T15:23:16.485Z,16.42
2022-11-29T15:24:19.689Z,16.38
2022-11-29T15:25:26.387Z,18.13
2022-11-29T15:26:28.295Z,17.27
2022-11-29T15:27:30.005Z,16.90
2022-11-29T15:28:31.653Z,18.52
2022-11-29T15:29:33.272Z,18.02
2022-11-29T15:30:38.386Z,18.75
2022-11-29T15:31:42.340Z,17.77
2022-11-29T15:32:44.096Z,18.38
2022-11-29T15:33:48.555Z,19.38
2022-11-29T15:34:53.212Z,18.58
2022-11-29T15:36:02.695Z,18.70
2022-11-29T15:37:04.724Z,18.15
2022-11-29T15:38:06.448Z,19.00
2022-11-29T15:39:28.147Z,19.60
2022-11-29T15:40:35.261Z,18.30
2022-11-29T15:41:36.986Z,17.58
2022-11-29T15:42:50.624Z,18.35
2022-11-29T15:44:01.638Z,18.00